sensor_id;sensor_type;location;lat;lon;timestamp;pressure;altitude;pressure_sealevel;temperature;humidity
25238;BME280;13185;50.872;5.306;2022-09-12T00:01:15;101362.34;;;13.92;99.35
25238;BME280;13185;50.872;5.306;2022-09-12T00:03:41;101366.97;;;13.90;99.38
25238;BME280;13185;50.872;5.306;2022-09-12T00:06:31;101361.69;;;13.89;99.48
25238;BME280;13185;50.872;5.306;2022-09-12T00:09:00;101366.34;;;13.86;99.60
25238;BME280;13185;50.872;5.306;2022-09-12T00:11:26;101361.88;;;13.85;100.00
25238;BME280;13185;50.872;5.306;2022-09-12T00:13:58;101359.41;;;13.82;100.00
25238;BME280;13185;50.872;5.306;2022-09-12T00:16:26;101352.41;;;13.80;99.71
25238;BME280;13185;50.872;5.306;2022-09-12T00:18:52;101356.09;;;13.79;99.33
25238;BME280;13185;50.872;5.306;2022-09-12T00:21:18;101349.16;;;13.75;99.24
25238;BME280;13185;50.872;5.306;2022-09-12T00:23:45;101349.28;;;13.73;99.21
25238;BME280;13185;50.872;5.306;2022-09-12T00:26:10;101344.13;;;13.70;99.64
25238;BME280;13185;50.872;5.306;2022-09-12T00:28:37;101344.13;;;13.70;99.69
25238;BME280;13185;50.872;5.306;2022-09-12T00:31:07;101345.09;;;13.69;99.67
25238;BME280;13185;50.872;5.306;2022-09-12T00:33:34;101342.50;;;13.68;99.45
25238;BME280;13185;50.872;5.306;2022-09-12T00:36:03;101340.91;;;13.65;99.19
25238;BME280;13185;50.872;5.306;2022-09-12T00:38:29;101342.81;;;13.63;99.50
25238;BME280;13185;50.872;5.306;2022-09-12T00:40:54;101337.66;;;13.60;99.48
25238;BME280;13185;50.872;5.306;2022-09-12T00:43:38;101328.91;;;13.56;99.34
25238;BME280;13185;50.872;5.306;2022-09-12T00:48:58;101323.94;;;13.50;99.57
25238;BME280;13185;50.872;5.306;2022-09-12T00:51:24;101328.69;;;13.47;99.36
25238;BME280;13185;50.872;5.306;2022-09-12T00:53:52;101327.16;;;13.43;100.00
25238;BME280;13185;50.872;5.306;2022-09-12T00:56:21;101330.94;;;13.40;100.00
25238;BME280;13185;50.872;5.306;2022-09-12T00:58:56;101324.06;;;13.36;100.00
25238;BME280;13185;50.872;5.306;2022-09-12T01:01:23;101326.94;;;13.33;100.00
25238;BME280;13185;50.872;5.306;2022-09-12T01:03:48;101331.47;;;13.33;100.00
25238;BME280;13185;50.872;5.306;2022-09-12T01:06:17;101321.78;;;13.30;100.00
25238;BME280;13185;50.872;5.306;2022-09-12T01:08:46;101321.00;;;13.28;100.00
25238;BME280;13185;50.872;5.306;2022-09-12T01:11:13;101323.94;;;13.25;100.00
25238;BME280;13185;50.872;5.306;2022-09-12T01:13:40;101330.28;;;13.24;100.00
25238;BME280;13185;50.872;5.306;2022-09-12T01:16:06;101318.72;;;13.22;100.00
25238;BME280;13185;50.872;5.306;2022-09-12T01:24:06;101323.00;;;13.12;100.00
25238;BME280;13185;50.872;5.306;2022-09-12T01:29:51;101309.75;;;13.09;100.00
25238;BME280;13185;50.872;5.306;2022-09-12T01:32:38;101303.72;;;13.05;100.00
25238;BME280;13185;50.872;5.306;2022-09-12T01:37:53;101294.31;;;12.98;100.00
25238;BME280;13185;50.872;5.306;2022-09-12T01:40:32;101295.41;;;12.95;100.00
25238;BME280;13185;50.872;5.306;2022-09-12T01:45:55;101289.44;;;12.90;100.00
25238;BME280;13185;50.872;5.306;2022-09-12T01:48:28;101288.47;;;12.91;100.00
25238;BME280;13185;50.872;5.306;2022-09-12T01:54:11;101285.03;;;12.89;100.00
25238;BME280;13185;50.872;5.306;2022-09-12T01:56:41;101284.38;;;12.86;100.00
25238;BME280;13185;50.872;5.306;2022-09-12T01:59:19;101279.09;;;12.84;100.00
25238;BME280;13185;50.872;5.306;2022-09-12T02:02:20;101272.00;;;12.83;100.00
25238;BME280;13185;50.872;5.306;2022-09-12T02:05:02;101275.75;;;12.81;100.00
25238;BME280;13185;50.872;5.306;2022-09-12T02:10:13;101272.41;;;12.77;100.00
25238;BME280;13185;50.872;5.306;2022-09-12T02:12:54;101264.53;;;12.74;100.00
25238;BME280;13185;50.872;5.306;2022-09-12T02:15:27;101269.19;;;12.72;100.00
25238;BME280;13185;50.872;5.306;2022-09-12T02:17:57;101255.78;;;12.70;100.00
25238;BME280;13185;50.872;5.306;2022-09-12T02:20:28;101259.56;;;12.68;100.00
25238;BME280;13185;50.872;5.306;2022-09-12T02:22:56;101256.13;;;12.66;100.00
25238;BME280;13185;50.872;5.306;2022-09-12T02:25:24;101253.81;;;12.60;100.00
25238;BME280;13185;50.872;5.306;2022-09-12T02:28:02;101254.69;;;12.60;100.00
25238;BME280;13185;50.872;5.306;2022-09-12T02:30:36;101258.44;;;12.58;100.00
25238;BME280;13185;50.872;5.306;2022-09-12T02:33:22;101262.97;;;12.57;100.00
25238;BME280;13185;50.872;5.306;2022-09-12T02:38:56;101254.16;;;12.55;100.00
25238;BME280;13185;50.872;5.306;2022-09-12T02:41:22;101254.25;;;12.54;100.00
25238;BME280;13185;50.872;5.306;2022-09-12T02:43:49;101260.59;;;12.53;100.00
25238;BME280;13185;50.872;5.306;2022-09-12T02:46:21;101264.44;;;12.49;100.00
25238;BME280;13185;50.872;5.306;2022-09-12T02:48:47;101267.13;;;12.49;100.00
25238;BME280;13185;50.872;5.306;2022-09-12T02:51:12;101262.72;;;12.48;100.00
25238;BME280;13185;50.872;5.306;2022-09-12T02:53:38;101257.66;;;12.43;100.00
25238;BME280;13185;50.872;5.306;2022-09-12T02:56:07;101256.78;;;12.42;100.00
25238;BME280;13185;50.872;5.306;2022-09-12T02:58:35;101250.66;;;12.40;100.00
25238;BME280;13185;50.872;5.306;2022-09-12T03:01:14;101245.34;;;12.39;100.00
25238;BME280;13185;50.872;5.306;2022-09-12T03:09:36;101251.81;;;12.36;100.00
25238;BME280;13185;50.872;5.306;2022-09-12T03:12:12;101243.84;;;12.35;100.00
25238;BME280;13185;50.872;5.306;2022-09-12T03:14:58;101251.16;;;12.33;100.00
25238;BME280;13185;50.872;5.306;2022-09-12T03:23:03;101248.69;;;12.30;100.00
25238;BME280;13185;50.872;5.306;2022-09-12T03:25:40;101247.78;;;12.29;100.00
25238;BME280;13185;50.872;5.306;2022-09-12T03:28:13;101263.16;;;12.27;100.00
25238;BME280;13185;50.872;5.306;2022-09-12T03:30:44;101255.22;;;12.26;100.00
25238;BME280;13185;50.872;5.306;2022-09-12T03:33:15;101246.28;;;12.25;100.00
25238;BME280;13185;50.872;5.306;2022-09-12T03:35:41;101250.03;;;12.23;100.00
25238;BME280;13185;50.872;5.306;2022-09-12T03:38:07;101247.44;;;12.21;100.00
25238;BME280;13185;50.872;5.306;2022-09-12T03:40:36;101241.38;;;12.18;100.00
25238;BME280;13185;50.872;5.306;2022-09-12T03:43:03;101247.63;;;12.18;100.00
25238;BME280;13185;50.872;5.306;2022-09-12T03:45:29;101245.16;;;12.15;100.00
25238;BME280;13185;50.872;5.306;2022-09-12T03:47:54;101242.47;;;12.15;100.00
25238;BME280;13185;50.872;5.306;2022-09-12T03:50:20;101242.56;;;12.13;100.00
25238;BME280;13185;50.872;5.306;2022-09-12T03:52:46;101247.19;;;12.11;100.00
25238;BME280;13185;50.872;5.306;2022-09-12T03:55:11;101236.53;;;12.10;100.00
25238;BME280;13185;50.872;5.306;2022-09-12T03:57:37;101238.44;;;12.08;100.00
25238;BME280;13185;50.872;5.306;2022-09-12T04:00:04;101231.44;;;12.05;100.00
25238;BME280;13185;50.872;5.306;2022-09-12T04:02:37;101230.78;;;12.02;100.00
25238;BME280;13185;50.872;5.306;2022-09-12T04:05:04;101224.66;;;12.00;100.00
25238;BME280;13185;50.872;5.306;2022-09-12T04:07:29;101228.22;;;12.00;100.00
25238;BME280;13185;50.872;5.306;2022-09-12T04:09:55;101227.41;;;11.98;100.00
25238;BME280;13185;50.872;5.306;2022-09-12T04:12:21;101225.63;;;11.99;100.00
25238;BME280;13185;50.872;5.306;2022-09-12T04:14:47;101223.88;;;11.98;100.00
25238;BME280;13185;50.872;5.306;2022-09-12T04:17:13;101223.22;;;11.94;100.00
25238;BME280;13185;50.872;5.306;2022-09-12T04:19:38;101215.16;;;11.94;100.00
25238;BME280;13185;50.872;5.306;2022-09-12T04:22:04;101217.94;;;11.93;100.00
25238;BME280;13185;50.872;5.306;2022-09-12T04:24:29;101217.09;;;11.92;100.00
25238;BME280;13185;50.872;5.306;2022-09-12T04:26:55;101213.53;;;11.92;100.00
25238;BME280;13185;50.872;5.306;2022-09-12T04:29:21;101206.53;;;11.89;100.00
25238;BME280;13185;50.872;5.306;2022-09-12T04:31:46;101209.22;;;11.89;100.00
25238;BME280;13185;50.872;5.306;2022-09-12T04:34:12;101209.28;;;11.88;100.00
25238;BME280;13185;50.872;5.306;2022-09-12T04:36:38;101205.00;;;11.85;100.00
25238;BME280;13185;50.872;5.306;2022-09-12T04:39:04;101214.88;;;11.84;100.00
25238;BME280;13185;50.872;5.306;2022-09-12T04:41:33;101206.91;;;11.83;100.00
25238;BME280;13185;50.872;5.306;2022-09-12T04:44:04;101208.84;;;11.81;100.00
25238;BME280;13185;50.872;5.306;2022-09-12T04:46:35;101203.66;;;11.78;100.00
25238;BME280;13185;50.872;5.306;2022-09-12T04:49:01;101209.03;;;11.78;100.00
25238;BME280;13185;50.872;5.306;2022-09-12T04:51:32;101206.41;;;11.76;100.00
25238;BME280;13185;50.872;5.306;2022-09-12T04:54:10;101209.19;;;11.75;100.00
25238;BME280;13185;50.872;5.306;2022-09-12T04:56:38;101208.44;;;11.73;100.00
25238;BME280;13185;50.872;5.306;2022-09-12T04:59:04;101212.94;;;11.72;100.00
25238;BME280;13185;50.872;5.306;2022-09-12T05:01:31;101213.91;;;11.71;100.00
25238;BME280;13185;50.872;5.306;2022-09-12T05:03:57;101213.91;;;11.71;100.00
25238;BME280;13185;50.872;5.306;2022-09-12T05:06:28;101210.47;;;11.69;100.00
25238;BME280;13185;50.872;5.306;2022-09-12T05:08:54;101211.44;;;11.68;100.00
25238;BME280;13185;50.872;5.306;2022-09-12T05:11:24;101210.63;;;11.66;100.00
25238;BME280;13185;50.872;5.306;2022-09-12T05:13:50;101212.47;;;11.66;100.00
25238;BME280;13185;50.872;5.306;2022-09-12T05:16:16;101216.97;;;11.65;100.00
25238;BME280;13185;50.872;5.306;2022-09-12T05:18:43;101217.94;;;11.64;100.00
25238;BME280;13185;50.872;5.306;2022-09-12T05:21:11;101218.81;;;11.65;100.00
25238;BME280;13185;50.872;5.306;2022-09-12T05:23:37;101217.94;;;11.64;100.00
25238;BME280;13185;50.872;5.306;2022-09-12T05:26:04;101212.47;;;11.66;100.00
25238;BME280;13185;50.872;5.306;2022-09-12T05:28:39;101214.28;;;11.65;100.00
25238;BME280;13185;50.872;5.306;2022-09-12T05:31:16;101213.44;;;11.65;100.00
25238;BME280;13185;50.872;5.306;2022-09-12T05:33:44;101217.78;;;11.67;100.00
25238;BME280;13185;50.872;5.306;2022-09-12T05:36:12;101212.28;;;11.69;100.00
25238;BME280;13185;50.872;5.306;2022-09-12T05:38:38;101221.13;;;11.71;100.00
25238;BME280;13185;50.872;5.306;2022-09-12T05:41:09;101221.88;;;11.73;100.00
25238;BME280;13185;50.872;5.306;2022-09-12T05:43:37;101224.25;;;11.77;100.00
25238;BME280;13185;50.872;5.306;2022-09-12T05:46:05;101220.56;;;11.80;100.00
25238;BME280;13185;50.872;5.306;2022-09-12T05:48:35;101222.84;;;11.86;100.00
25238;BME280;13185;50.872;5.306;2022-09-12T05:51:15;101220.03;;;11.88;100.00
25238;BME280;13185;50.872;5.306;2022-09-12T05:53:46;101219.88;;;11.91;100.00
25238;BME280;13185;50.872;5.306;2022-09-12T05:56:17;101221.28;;;11.96;100.00
25238;BME280;13185;50.872;5.306;2022-09-12T05:58:47;101221.88;;;12.01;100.00
25238;BME280;13185;50.872;5.306;2022-09-12T06:01:17;101230.38;;;12.08;100.00
25238;BME280;13185;50.872;5.306;2022-09-12T06:03:45;101219.97;;;12.16;100.00
25238;BME280;13185;50.872;5.306;2022-09-12T06:06:12;101230.13;;;12.25;100.00
25238;BME280;13185;50.872;5.306;2022-09-12T06:08:39;101225.34;;;12.30;100.00
25238;BME280;13185;50.872;5.306;2022-09-12T06:11:05;101228.56;;;12.35;100.00
25238;BME280;13185;50.872;5.306;2022-09-12T06:13:33;101226.25;;;12.43;100.00
25238;BME280;13185;50.872;5.306;2022-09-12T06:16:12;101230.25;;;12.51;100.00
25238;BME280;13185;50.872;5.306;2022-09-12T06:18:38;101234.13;;;12.59;100.00
25238;BME280;13185;50.872;5.306;2022-09-12T06:21:09;101236.97;;;12.70;100.00
25238;BME280;13185;50.872;5.306;2022-09-12T06:23:35;101233.75;;;12.78;100.00
25238;BME280;13185;50.872;5.306;2022-09-12T06:26:02;101245.72;;;12.87;100.00
25238;BME280;13185;50.872;5.306;2022-09-12T06:28:29;101249.75;;;12.94;100.00
25238;BME280;13185;50.872;5.306;2022-09-12T06:31:02;101241.09;;;13.01;100.00
25238;BME280;13185;50.872;5.306;2022-09-12T06:33:32;101251.34;;;13.09;100.00
25238;BME280;13185;50.872;5.306;2022-09-12T06:36:06;101236.50;;;13.16;100.00
25238;BME280;13185;50.872;5.306;2022-09-12T06:38:32;101234.56;;;13.18;100.00
25238;BME280;13185;50.872;5.306;2022-09-12T06:40:58;101239.88;;;13.20;100.00
25238;BME280;13185;50.872;5.306;2022-09-12T06:43:25;101239.75;;;13.21;100.00
25238;BME280;13185;50.872;5.306;2022-09-12T06:45:51;101243.25;;;13.23;100.00
25238;BME280;13185;50.872;5.306;2022-09-12T06:48:16;101246.78;;;13.24;100.00
25238;BME280;13185;50.872;5.306;2022-09-12T06:50:42;101244.19;;;13.22;100.00
25238;BME280;13185;50.872;5.306;2022-09-12T06:53:07;101241.59;;;13.21;100.00
25238;BME280;13185;50.872;5.306;2022-09-12T06:55:34;101242.47;;;13.21;100.00
25238;BME280;13185;50.872;5.306;2022-09-12T06:57:59;101241.47;;;13.22;100.00
25238;BME280;13185;50.872;5.306;2022-09-12T07:00:25;101244.09;;;13.24;100.00
25238;BME280;13185;50.872;5.306;2022-09-12T07:02:56;101239.25;;;13.29;100.00
25238;BME280;13185;50.872;5.306;2022-09-12T07:05:21;101229.88;;;13.35;100.00
25238;BME280;13185;50.872;5.306;2022-09-12T07:07:47;101235.47;;;13.44;100.00
25238;BME280;13185;50.872;5.306;2022-09-12T07:10:13;101225.00;;;13.52;100.00
25238;BME280;13185;50.872;5.306;2022-09-12T07:12:38;101222.50;;;13.62;100.00
25238;BME280;13185;50.872;5.306;2022-09-12T07:15:04;101225.63;;;13.69;100.00
25238;BME280;13185;50.872;5.306;2022-09-12T07:17:30;101224.13;;;13.77;100.00
25238;BME280;13185;50.872;5.306;2022-09-12T07:19:55;101221.06;;;13.82;100.00
25238;BME280;13185;50.872;5.306;2022-09-12T07:22:21;101218.91;;;13.87;100.00
25238;BME280;13185;50.872;5.306;2022-09-12T07:24:46;101223.84;;;13.93;100.00
25238;BME280;13185;50.872;5.306;2022-09-12T07:27:13;101223.28;;;14.01;100.00
25238;BME280;13185;50.872;5.306;2022-09-12T07:29:38;101210.97;;;14.09;100.00
25238;BME280;13185;50.872;5.306;2022-09-12T07:32:04;101213.00;;;14.19;100.00
25238;BME280;13185;50.872;5.306;2022-09-12T07:34:30;101213.25;;;14.27;100.00
25238;BME280;13185;50.872;5.306;2022-09-12T07:36:56;101215.38;;;14.34;100.00
25238;BME280;13185;50.872;5.306;2022-09-12T07:39:22;101220.00;;;14.45;100.00
25238;BME280;13185;50.872;5.306;2022-09-12T07:41:47;101215.66;;;14.55;100.00
25238;BME280;13185;50.872;5.306;2022-09-12T07:44:12;101198.88;;;14.63;100.00
25238;BME280;13185;50.872;5.306;2022-09-12T07:46:38;101205.03;;;14.76;100.00
25238;BME280;13185;50.872;5.306;2022-09-12T07:49:04;101207.91;;;14.86;100.00
25238;BME280;13185;50.872;5.306;2022-09-12T07:51:30;101210.75;;;14.95;100.00
25238;BME280;13185;50.872;5.306;2022-09-12T07:53:56;101207.94;;;15.08;100.00
25238;BME280;13185;50.872;5.306;2022-09-12T07:56:23;101207.22;;;15.17;100.00
25238;BME280;13185;50.872;5.306;2022-09-12T07:58:48;101206.75;;;15.23;100.00
25238;BME280;13185;50.872;5.306;2022-09-12T08:01:19;101204.06;;;15.35;100.00
25238;BME280;13185;50.872;5.306;2022-09-12T08:03:47;101210.34;;;15.46;100.00
25238;BME280;13185;50.872;5.306;2022-09-12T08:06:16;101201.38;;;15.57;100.00
25238;BME280;13185;50.872;5.306;2022-09-12T08:08:44;101209.50;;;15.68;100.00
25238;BME280;13185;50.872;5.306;2022-09-12T08:11:12;101207.91;;;15.77;100.00
25238;BME280;13185;50.872;5.306;2022-09-12T08:13:40;101214.66;;;15.82;100.00
25238;BME280;13185;50.872;5.306;2022-09-12T08:16:29;101208.63;;;15.90;100.00
25238;BME280;13185;50.872;5.306;2022-09-12T08:18:52;101208.72;;;16.00;100.00
25238;BME280;13185;50.872;5.306;2022-09-12T08:21:26;101210.44;;;16.12;100.00
25238;BME280;13185;50.872;5.306;2022-09-12T08:23:54;101208.69;;;16.22;100.00
25238;BME280;13185;50.872;5.306;2022-09-12T08:26:20;101195.97;;;16.34;100.00
25238;BME280;13185;50.872;5.306;2022-09-12T08:28:46;101204.53;;;16.50;100.00
25238;BME280;13185;50.872;5.306;2022-09-12T08:31:15;101198.22;;;16.61;100.00
25238;BME280;13185;50.872;5.306;2022-09-12T08:33:41;101200.19;;;16.70;100.00
25238;BME280;13185;50.872;5.306;2022-09-12T08:36:09;101206.53;;;16.80;100.00
25238;BME280;13185;50.872;5.306;2022-09-12T08:38:37;101202.28;;;16.87;100.00
25238;BME280;13185;50.872;5.306;2022-09-12T08:46:22;101195.41;;;17.25;100.00
25238;BME280;13185;50.872;5.306;2022-09-12T08:48:48;101196.03;;;17.38;100.00
25238;BME280;13185;50.872;5.306;2022-09-12T08:51:16;101182.66;;;17.46;100.00
25238;BME280;13185;50.872;5.306;2022-09-12T08:53:44;101188.00;;;17.57;100.00
25238;BME280;13185;50.872;5.306;2022-09-12T08:56:12;101181.34;;;17.71;100.00
25238;BME280;13185;50.872;5.306;2022-09-12T08:58:43;101192.44;;;17.99;99.36
25238;BME280;13185;50.872;5.306;2022-09-12T09:06:51;101183.50;;;18.27;96.70
25238;BME280;13185;50.872;5.306;2022-09-12T09:09:46;101190.09;;;18.25;94.51
25238;BME280;13185;50.872;5.306;2022-09-12T09:12:27;101189.09;;;18.26;93.91
25238;BME280;13185;50.872;5.306;2022-09-12T09:17:48;101189.09;;;18.26;92.46
25238;BME280;13185;50.872;5.306;2022-09-12T09:23:14;101180.94;;;18.35;93.65
25238;BME280;13185;50.872;5.306;2022-09-12T09:25:57;101173.22;;;18.40;92.09
25238;BME280;13185;50.872;5.306;2022-09-12T09:28:32;101170.94;;;18.45;89.02
25238;BME280;13185;50.872;5.306;2022-09-12T09:31:00;101174.22;;;18.49;87.84
25238;BME280;13185;50.872;5.306;2022-09-12T09:33:32;101167.50;;;18.53;86.76
25238;BME280;13185;50.872;5.306;2022-09-12T09:41:33;101172.66;;;18.75;83.03
25238;BME280;13185;50.872;5.306;2022-09-12T09:44:03;101171.94;;;18.83;83.10
25238;BME280;13185;50.872;5.306;2022-09-12T09:46:28;101173.38;;;18.87;83.65
25238;BME280;13185;50.872;5.306;2022-09-12T09:48:56;101179.78;;;18.96;80.96
25238;BME280;13185;50.872;5.306;2022-09-12T09:51:25;101178.34;;;19.01;81.53
25238;BME280;13185;50.872;5.306;2022-09-12T09:53:52;101172.47;;;19.06;80.65
25238;BME280;13185;50.872;5.306;2022-09-12T09:56:37;101172.91;;;19.11;79.38
25238;BME280;13185;50.872;5.306;2022-09-12T09:59:14;101171.31;;;19.18;78.66
25238;BME280;13185;50.872;5.306;2022-09-12T10:01:50;101168.25;;;19.31;78.45
25238;BME280;13185;50.872;5.306;2022-09-12T10:04:18;101166.53;;;19.40;75.71
25238;BME280;13185;50.872;5.306;2022-09-12T10:06:45;101155.88;;;19.46;76.16
25238;BME280;13185;50.872;5.306;2022-09-12T10:11:39;101145.97;;;19.55;74.29
25238;BME280;13185;50.872;5.306;2022-09-12T10:14:42;101140.53;;;19.55;74.47
25238;BME280;13185;50.872;5.306;2022-09-12T10:17:24;101143.25;;;19.55;74.95
25238;BME280;13185;50.872;5.306;2022-09-12T10:19:50;101143.78;;;19.68;76.09
25238;BME280;13185;50.872;5.306;2022-09-12T10:22:20;101128.34;;;19.86;74.90
25238;BME280;13185;50.872;5.306;2022-09-12T10:24:50;101123.25;;;20.01;72.95
25238;BME280;13185;50.872;5.306;2022-09-12T10:27:25;101123.94;;;20.21;72.53
25238;BME280;13185;50.872;5.306;2022-09-12T10:30:02;101119.19;;;20.41;72.63
25238;BME280;13185;50.872;5.306;2022-09-12T10:32:34;101110.41;;;20.65;69.79
25238;BME280;13185;50.872;5.306;2022-09-12T10:37:56;101107.63;;;20.83;69.43
25238;BME280;13185;50.872;5.306;2022-09-12T10:40:28;101109.56;;;20.90;67.79
25238;BME280;13185;50.872;5.306;2022-09-12T10:42:56;101109.22;;;20.93;68.74
25238;BME280;13185;50.872;5.306;2022-09-12T10:47:55;101085.16;;;21.15;68.65
25238;BME280;13185;50.872;5.306;2022-09-12T10:50:41;101095.09;;;21.24;69.17
25238;BME280;13185;50.872;5.306;2022-09-12T10:53:26;101091.63;;;21.40;66.90
25238;BME280;13185;50.872;5.306;2022-09-12T10:56:20;101096.75;;;21.43;67.00
25238;BME280;13185;50.872;5.306;2022-09-12T11:04:02;101091.84;;;21.54;65.86
25238;BME280;13185;50.872;5.306;2022-09-12T11:09:24;101099.75;;;21.57;65.26
25238;BME280;13185;50.872;5.306;2022-09-12T11:17:59;101081.53;;;21.74;65.78
25238;BME280;13185;50.872;5.306;2022-09-12T11:40:05;101049.03;;;22.13;62.75
25238;BME280;13185;50.872;5.306;2022-09-12T11:42:38;101048.19;;;22.21;62.67
25238;BME280;13185;50.872;5.306;2022-09-12T11:45:27;101049.53;;;22.33;63.42
25238;BME280;13185;50.872;5.306;2022-09-12T11:47:57;101046.63;;;22.43;63.82
25238;BME280;13185;50.872;5.306;2022-09-12T11:50:29;101039.63;;;22.57;63.83
25238;BME280;13185;50.872;5.306;2022-09-12T11:53:28;101047.47;;;22.60;63.21
25238;BME280;13185;50.872;5.306;2022-09-12T11:55:57;101052.75;;;22.69;62.01
25238;BME280;13185;50.872;5.306;2022-09-12T11:58:27;101047.25;;;22.77;61.96
25238;BME280;13185;50.872;5.306;2022-09-12T12:01:06;101046.94;;;22.89;61.56
25238;BME280;13185;50.872;5.306;2022-09-12T12:03:41;101048.31;;;22.93;59.78
25238;BME280;13185;50.872;5.306;2022-09-12T12:08:42;101037.50;;;22.91;60.51
25238;BME280;13185;50.872;5.306;2022-09-12T12:11:09;101034.44;;;22.94;60.27
25238;BME280;13185;50.872;5.306;2022-09-12T12:13:39;101031.34;;;23.06;60.31
25238;BME280;13185;50.872;5.306;2022-09-12T12:16:24;101037.75;;;23.21;61.03
25238;BME280;13185;50.872;5.306;2022-09-12T12:18:58;101031.03;;;23.31;60.18
25238;BME280;13185;50.872;5.306;2022-09-12T12:26:53;101037.81;;;23.44;58.90
25238;BME280;13185;50.872;5.306;2022-09-12T12:34:34;101040.28;;;23.70;57.45
25238;BME280;13185;50.872;5.306;2022-09-12T12:40:07;101037.63;;;23.84;57.13
25238;BME280;13185;50.872;5.306;2022-09-12T12:45:00;101039.03;;;24.03;55.55
25238;BME280;13185;50.872;5.306;2022-09-12T12:47:38;101036.41;;;24.10;53.84
25238;BME280;13185;50.872;5.306;2022-09-12T12:50:12;101039.44;;;24.15;54.36
25238;BME280;13185;50.872;5.306;2022-09-12T12:55:29;101021.53;;;24.27;52.50
25238;BME280;13185;50.872;5.306;2022-09-12T12:57:59;101013.84;;;24.31;52.53
25238;BME280;13185;50.872;5.306;2022-09-12T13:00:34;101012.88;;;24.38;51.96
25238;BME280;13185;50.872;5.306;2022-09-12T13:05:45;101011.16;;;24.60;51.79
25238;BME280;13185;50.872;5.306;2022-09-12T13:10:54;101001.97;;;24.68;52.03
25238;BME280;13185;50.872;5.306;2022-09-12T13:13:37;100994.91;;;24.73;50.61
25238;BME280;13185;50.872;5.306;2022-09-12T13:16:04;100991.97;;;24.75;50.57
25238;BME280;13185;50.872;5.306;2022-09-12T13:18:45;100986.47;;;24.75;50.89
25238;BME280;13185;50.872;5.306;2022-09-12T13:21:17;100991.78;;;24.91;49.96
25238;BME280;13185;50.872;5.306;2022-09-12T13:23:43;100983.81;;;24.96;49.39
25238;BME280;13185;50.872;5.306;2022-09-12T13:26:12;100975.41;;;24.98;47.28
25238;BME280;13185;50.872;5.306;2022-09-12T13:28:38;100970.25;;;25.03;48.18
25238;BME280;13185;50.872;5.306;2022-09-12T13:31:20;100970.69;;;24.92;47.59
25238;BME280;13185;50.872;5.306;2022-09-12T13:33:51;100966.72;;;24.94;48.17
25238;BME280;13185;50.872;5.306;2022-09-12T13:39:26;100970.66;;;25.21;47.26
25238;BME280;13185;50.872;5.306;2022-09-12T13:47:35;100969.03;;;25.63;47.22
25238;BME280;13185;50.872;5.306;2022-09-12T13:50:05;100965.16;;;25.72;47.21
25238;BME280;13185;50.872;5.306;2022-09-12T13:52:34;100961.44;;;25.80;46.53
25238;BME280;13185;50.872;5.306;2022-09-12T13:55:06;100967.38;;;25.83;47.34
25238;BME280;13185;50.872;5.306;2022-09-12T13:57:38;100962.41;;;25.94;46.02
25238;BME280;13185;50.872;5.306;2022-09-12T14:02:39;100959.06;;;25.98;46.13
25238;BME280;13185;50.872;5.306;2022-09-12T14:05:34;100963.81;;;26.11;45.49
25238;BME280;13185;50.872;5.306;2022-09-12T14:08:01;100950.34;;;26.16;44.56
25238;BME280;13185;50.872;5.306;2022-09-12T14:10:33;100951.66;;;26.20;44.27
25238;BME280;13185;50.872;5.306;2022-09-12T14:13:08;100951.31;;;26.30;45.84
25238;BME280;13185;50.872;5.306;2022-09-12T14:15:36;100939.63;;;26.49;45.15
25238;BME280;13185;50.872;5.306;2022-09-12T14:18:04;100940.69;;;26.48;44.15
25238;BME280;13185;50.872;5.306;2022-09-12T14:20:36;100938.78;;;26.49;44.92
25238;BME280;13185;50.872;5.306;2022-09-12T14:23:17;100934.13;;;26.49;45.00
25238;BME280;13185;50.872;5.306;2022-09-12T14:25:46;100926.56;;;26.58;44.93
25238;BME280;13185;50.872;5.306;2022-09-12T14:28:13;100932.25;;;26.56;43.70
25238;BME280;13185;50.872;5.306;2022-09-12T14:31:06;100936.06;;;26.55;43.97
25238;BME280;13185;50.872;5.306;2022-09-12T14:33:53;100930.56;;;26.55;43.28
25238;BME280;13185;50.872;5.306;2022-09-12T14:38:54;100914.31;;;26.60;44.29
25238;BME280;13185;50.872;5.306;2022-09-12T14:41:25;100916.97;;;26.82;44.25
25238;BME280;13185;50.872;5.306;2022-09-12T14:43:57;100901.78;;;26.92;43.84
25238;BME280;13185;50.872;5.306;2022-09-12T14:46:24;100905.66;;;27.04;43.56
25238;BME280;13185;50.872;5.306;2022-09-12T14:48:53;100903.78;;;27.12;42.76
25238;BME280;13185;50.872;5.306;2022-09-12T14:51:25;100905.91;;;27.16;42.47
25238;BME280;13185;50.872;5.306;2022-09-12T14:53:52;100904.66;;;27.25;42.74
25238;BME280;13185;50.872;5.306;2022-09-12T14:56:20;100893.00;;;27.30;41.96
25238;BME280;13185;50.872;5.306;2022-09-12T14:58:47;100894.09;;;27.36;42.01
25238;BME280;13185;50.872;5.306;2022-09-12T15:06:30;100888.81;;;27.47;41.36
25238;BME280;13185;50.872;5.306;2022-09-12T15:09:12;100888.44;;;27.64;40.77
25238;BME280;13185;50.872;5.306;2022-09-12T15:11:38;100878.28;;;27.71;41.21
25238;BME280;13185;50.872;5.306;2022-09-12T15:14:11;100883.41;;;27.74;39.45
25238;BME280;13185;50.872;5.306;2022-09-12T15:16:37;100876.59;;;27.76;40.56
25238;BME280;13185;50.872;5.306;2022-09-12T15:19:03;100873.84;;;27.76;39.17
25238;BME280;13185;50.872;5.306;2022-09-12T15:21:28;100884.84;;;27.63;39.34
25238;BME280;13185;50.872;5.306;2022-09-12T15:23:54;100868.91;;;27.45;39.36
25238;BME280;13185;50.872;5.306;2022-09-12T15:26:24;100862.31;;;27.40;39.68
25238;BME280;13185;50.872;5.306;2022-09-12T15:28:51;100869.13;;;27.44;40.18